sensor_id;sensor_type;location;lat;lon;timestamp;P1;durP1;ratioP1;P2;durP2;ratioP2
31716;SDS011;18301;51.076;17.046;2022-10-13T00:02:45;62.10;;;31.02;;
31716;SDS011;18301;51.076;17.046;2022-10-13T00:07:47;49.90;;;23.27;;
31716;SDS011;18301;51.076;17.046;2022-10-13T00:12:48;51.25;;;24.88;;
31716;SDS011;18301;51.076;17.046;2022-10-13T00:17:51;50.22;;;23.63;;
31716;SDS011;18301;51.076;17.046;2022-10-13T00:22:52;40.90;;;19.98;;
31716;SDS011;18301;51.076;17.046;2022-10-13T00:27:54;43.65;;;18.95;;
31716;SDS011;18301;51.076;17.046;2022-10-13T00:32:55;33.10;;;16.95;;
31716;SDS011;18301;51.076;17.046;2022-10-13T00:37:57;32.58;;;15.35;;
31716;SDS011;18301;51.076;17.046;2022-10-13T00:42:58;32.55;;;16.95;;
31716;SDS011;18301;51.076;17.046;2022-10-13T00:48:00;36.28;;;15.70;;
31716;SDS011;18301;51.076;17.046;2022-10-13T00:53:02;36.35;;;16.73;;
31716;SDS011;18301;51.076;17.046;2022-10-13T00:58:06;44.13;;;18.42;;
31716;SDS011;18301;51.076;17.046;2022-10-13T01:03:10;37.65;;;17.42;;
31716;SDS011;18301;51.076;17.046;2022-10-13T01:08:12;39.40;;;17.95;;
31716;SDS011;18301;51.076;17.046;2022-10-13T01:18:45;38.95;;;17.90;;
31716;SDS011;18301;51.076;17.046;2022-10-13T01:30:00;38.33;;;17.63;;
31716;SDS011;18301;51.076;17.046;2022-10-13T01:35:13;37.20;;;19.08;;
31716;SDS011;18301;51.076;17.046;2022-10-13T01:40:21;41.00;;;18.50;;
31716;SDS011;18301;51.076;17.046;2022-10-13T01:45:29;35.83;;;18.80;;
31716;SDS011;18301;51.076;17.046;2022-10-13T01:50:36;39.40;;;19.17;;
31716;SDS011;18301;51.076;17.046;2022-10-13T01:55:49;39.45;;;19.80;;
31716;SDS011;18301;51.076;17.046;2022-10-13T02:00:55;36.45;;;19.60;;
31716;SDS011;18301;51.076;17.046;2022-10-13T02:06:12;41.88;;;20.77;;
31716;SDS011;18301;51.076;17.046;2022-10-13T02:11:21;37.70;;;20.13;;
31716;SDS011;18301;51.076;17.046;2022-10-13T02:16:24;36.88;;;19.85;;
31716;SDS011;18301;51.076;17.046;2022-10-13T02:21:34;39.60;;;19.92;;
31716;SDS011;18301;51.076;17.046;2022-10-13T02:26:36;38.78;;;19.70;;
31716;SDS011;18301;51.076;17.046;2022-10-13T02:31:38;40.22;;;21.13;;
31716;SDS011;18301;51.076;17.046;2022-10-13T02:36:40;43.35;;;21.70;;
31716;SDS011;18301;51.076;17.046;2022-10-13T02:41:42;40.33;;;21.77;;
31716;SDS011;18301;51.076;17.046;2022-10-13T02:46:44;37.08;;;20.60;;
31716;SDS011;18301;51.076;17.046;2022-10-13T02:51:45;38.65;;;21.35;;
31716;SDS011;18301;51.076;17.046;2022-10-13T02:56:46;42.33;;;22.27;;
31716;SDS011;18301;51.076;17.046;2022-10-13T03:01:48;43.45;;;22.73;;
31716;SDS011;18301;51.076;17.046;2022-10-13T03:06:49;41.75;;;21.88;;
31716;SDS011;18301;51.076;17.046;2022-10-13T03:11:51;39.03;;;21.88;;
31716;SDS011;18301;51.076;17.046;2022-10-13T03:16:52;40.08;;;21.98;;
31716;SDS011;18301;51.076;17.046;2022-10-13T03:21:54;43.88;;;23.00;;
31716;SDS011;18301;51.076;17.046;2022-10-13T03:26:55;42.40;;;22.33;;
31716;SDS011;18301;51.076;17.046;2022-10-13T03:31:56;46.25;;;25.50;;
31716;SDS011;18301;51.076;17.046;2022-10-13T03:36:58;46.20;;;24.90;;
31716;SDS011;18301;51.076;17.046;2022-10-13T03:41:59;41.95;;;24.75;;
31716;SDS011;18301;51.076;17.046;2022-10-13T03:47:01;48.80;;;25.90;;
31716;SDS011;18301;51.076;17.046;2022-10-13T03:52:02;45.85;;;25.38;;
31716;SDS011;18301;51.076;17.046;2022-10-13T03:57:04;48.63;;;29.50;;
31716;SDS011;18301;51.076;17.046;2022-10-13T04:02:05;49.08;;;26.52;;
31716;SDS011;18301;51.076;17.046;2022-10-13T04:07:08;51.35;;;26.42;;
31716;SDS011;18301;51.076;17.046;2022-10-13T04:12:09;47.33;;;25.98;;
31716;SDS011;18301;51.076;17.046;2022-10-13T04:17:10;50.88;;;25.90;;
31716;SDS011;18301;51.076;17.046;2022-10-13T04:22:12;46.45;;;26.40;;
31716;SDS011;18301;51.076;17.046;2022-10-13T04:27:14;46.42;;;26.35;;
31716;SDS011;18301;51.076;17.046;2022-10-13T04:32:17;47.22;;;25.65;;
31716;SDS011;18301;51.076;17.046;2022-10-13T04:37:19;48.17;;;26.88;;
31716;SDS011;18301;51.076;17.046;2022-10-13T04:42:20;45.88;;;26.13;;
31716;SDS011;18301;51.076;17.046;2022-10-13T04:47:22;50.13;;;26.40;;
31716;SDS011;18301;51.076;17.046;2022-10-13T04:52:23;47.75;;;26.58;;
31716;SDS011;18301;51.076;17.046;2022-10-13T04:57:25;47.42;;;26.48;;
31716;SDS011;18301;51.076;17.046;2022-10-13T05:02:26;53.28;;;28.10;;
31716;SDS011;18301;51.076;17.046;2022-10-13T05:07:29;46.75;;;27.35;;
31716;SDS011;18301;51.076;17.046;2022-10-13T05:12:31;50.10;;;25.65;;
31716;SDS011;18301;51.076;17.046;2022-10-13T05:17:32;52.47;;;27.80;;
31716;SDS011;18301;51.076;17.046;2022-10-13T05:22:35;48.90;;;26.60;;
31716;SDS011;18301;51.076;17.046;2022-10-13T05:27:37;49.63;;;25.50;;
31716;SDS011;18301;51.076;17.046;2022-10-13T05:32:38;48.15;;;28.30;;
31716;SDS011;18301;51.076;17.046;2022-10-13T05:37:40;51.42;;;27.13;;
31716;SDS011;18301;51.076;17.046;2022-10-13T05:42:41;53.17;;;27.02;;
31716;SDS011;18301;51.076;17.046;2022-10-13T05:47:43;55.35;;;27.45;;
31716;SDS011;18301;51.076;17.046;2022-10-13T05:52:44;53.28;;;26.88;;
31716;SDS011;18301;51.076;17.046;2022-10-13T05:57:47;56.47;;;27.55;;
31716;SDS011;18301;51.076;17.046;2022-10-13T06:02:56;50.85;;;27.60;;
31716;SDS011;18301;51.076;17.046;2022-10-13T06:08:05;50.88;;;27.40;;
31716;SDS011;18301;51.076;17.046;2022-10-13T06:13:07;51.67;;;26.85;;
31716;SDS011;18301;51.076;17.046;2022-10-13T06:18:09;54.35;;;29.48;;
31716;SDS011;18301;51.076;17.046;2022-10-13T06:23:10;56.65;;;28.73;;
31716;SDS011;18301;51.076;17.046;2022-10-13T06:28:12;52.30;;;28.02;;
31716;SDS011;18301;51.076;17.046;2022-10-13T06:33:13;58.83;;;29.63;;
31716;SDS011;18301;51.076;17.046;2022-10-13T06:38:15;54.15;;;30.90;;
31716;SDS011;18301;51.076;17.046;2022-10-13T06:43:17;50.65;;;27.13;;
31716;SDS011;18301;51.076;17.046;2022-10-13T06:48:19;56.10;;;30.45;;
31716;SDS011;18301;51.076;17.046;2022-10-13T06:53:20;56.08;;;30.63;;
31716;SDS011;18301;51.076;17.046;2022-10-13T06:58:22;56.33;;;33.22;;
31716;SDS011;18301;51.076;17.046;2022-10-13T07:03:23;54.17;;;30.95;;
31716;SDS011;18301;51.076;17.046;2022-10-13T07:08:25;55.03;;;30.40;;
31716;SDS011;18301;51.076;17.046;2022-10-13T07:13:26;59.75;;;32.30;;
31716;SDS011;18301;51.076;17.046;2022-10-13T07:18:31;56.58;;;29.80;;
31716;SDS011;18301;51.076;17.046;2022-10-13T07:23:33;52.83;;;29.67;;
31716;SDS011;18301;51.076;17.046;2022-10-13T07:28:34;51.65;;;28.05;;
31716;SDS011;18301;51.076;17.046;2022-10-13T07:33:36;57.83;;;30.27;;
31716;SDS011;18301;51.076;17.046;2022-10-13T07:38:38;52.30;;;29.05;;
31716;SDS011;18301;51.076;17.046;2022-10-13T07:43:40;52.70;;;27.48;;
31716;SDS011;18301;51.076;17.046;2022-10-13T07:48:42;50.45;;;27.38;;
31716;SDS011;18301;51.076;17.046;2022-10-13T07:53:43;51.90;;;28.25;;
31716;SDS011;18301;51.076;17.046;2022-10-13T07:58:46;58.10;;;29.17;;
31716;SDS011;18301;51.076;17.046;2022-10-13T08:03:48;48.50;;;27.45;;
31716;SDS011;18301;51.076;17.046;2022-10-13T08:08:51;45.95;;;26.55;;
31716;SDS011;18301;51.076;17.046;2022-10-13T08:13:53;41.15;;;24.05;;
31716;SDS011;18301;51.076;17.046;2022-10-13T08:18:56;52.10;;;25.90;;
31716;SDS011;18301;51.076;17.046;2022-10-13T08:23:58;41.70;;;22.20;;
31716;SDS011;18301;51.076;17.046;2022-10-13T08:29:00;40.90;;;23.52;;
31716;SDS011;18301;51.076;17.046;2022-10-13T08:34:22;46.92;;;25.27;;
31716;SDS011;18301;51.076;17.046;2022-10-13T08:39:24;48.45;;;25.70;;
31716;SDS011;18301;51.076;17.046;2022-10-13T08:44:37;46.58;;;26.17;;
31716;SDS011;18301;51.076;17.046;2022-10-13T08:50:02;48.80;;;25.17;;
31716;SDS011;18301;51.076;17.046;2022-10-13T08:55:19;45.08;;;24.80;;
31716;SDS011;18301;51.076;17.046;2022-10-13T09:00:25;47.13;;;26.02;;
31716;SDS011;18301;51.076;17.046;2022-10-13T09:05:34;46.13;;;26.05;;
31716;SDS011;18301;51.076;17.046;2022-10-13T09:10:45;41.42;;;22.25;;
31716;SDS011;18301;51.076;17.046;2022-10-13T09:15:48;35.55;;;19.65;;
31716;SDS011;18301;51.076;17.046;2022-10-13T09:21:00;28.05;;;16.17;;
31716;SDS011;18301;51.076;17.046;2022-10-13T09:26:15;36.92;;;19.00;;
31716;SDS011;18301;51.076;17.046;2022-10-13T09:31:23;30.30;;;16.25;;
31716;SDS011;18301;51.076;17.046;2022-10-13T09:36:27;30.27;;;16.10;;
31716;SDS011;18301;51.076;17.046;2022-10-13T09:41:29;22.15;;;14.20;;
31716;SDS011;18301;51.076;17.046;2022-10-13T09:46:32;25.60;;;14.57;;
31716;SDS011;18301;51.076;17.046;2022-10-13T09:51:38;29.80;;;15.55;;
31716;SDS011;18301;51.076;17.046;2022-10-13T09:56:42;29.25;;;16.05;;
31716;SDS011;18301;51.076;17.046;2022-10-13T10:01:49;30.05;;;15.93;;
31716;SDS011;18301;51.076;17.046;2022-10-13T10:06:52;27.10;;;14.90;;
31716;SDS011;18301;51.076;17.046;2022-10-13T10:11:54;31.02;;;15.95;;
31716;SDS011;18301;51.076;17.046;2022-10-13T10:17:03;31.17;;;14.07;;
31716;SDS011;18301;51.076;17.046;2022-10-13T10:22:34;22.67;;;11.70;;
31716;SDS011;18301;51.076;17.046;2022-10-13T10:27:41;23.15;;;12.43;;
31716;SDS011;18301;51.076;17.046;2022-10-13T10:33:19;26.05;;;12.95;;
31716;SDS011;18301;51.076;17.046;2022-10-13T10:38:34;22.55;;;13.13;;
31716;SDS011;18301;51.076;17.046;2022-10-13T10:43:49;21.23;;;12.63;;
31716;SDS011;18301;51.076;17.046;2022-10-13T10:48:59;22.65;;;12.27;;
31716;SDS011;18301;51.076;17.046;2022-10-13T10:54:21;21.00;;;11.77;;
31716;SDS011;18301;51.076;17.046;2022-10-13T11:04:51;22.90;;;10.98;;
31716;SDS011;18301;51.076;17.046;2022-10-13T11:15:10;17.67;;;9.70;;
31716;SDS011;18301;51.076;17.046;2022-10-13T11:31:21;13.10;;;7.72;;
31716;SDS011;18301;51.076;17.046;2022-10-13T11:36:30;9.75;;;6.38;;
31716;SDS011;18301;51.076;17.046;2022-10-13T11:41:38;13.57;;;7.85;;
31716;SDS011;18301;51.076;17.046;2022-10-13T11:47:01;11.23;;;6.70;;
31716;SDS011;18301;51.076;17.046;2022-10-13T11:57:48;13.48;;;7.15;;
31716;SDS011;18301;51.076;17.046;2022-10-13T12:02:50;11.77;;;7.03;;
31716;SDS011;18301;51.076;17.046;2022-10-13T12:07:58;11.02;;;7.05;;
31716;SDS011;18301;51.076;17.046;2022-10-13T12:13:03;13.35;;;6.85;;
31716;SDS011;18301;51.076;17.046;2022-10-13T12:18:24;13.05;;;6.90;;
31716;SDS011;18301;51.076;17.046;2022-10-13T12:23:34;14.98;;;7.38;;
31716;SDS011;18301;51.076;17.046;2022-10-13T12:33:56;12.40;;;6.30;;
31716;SDS011;18301;51.076;17.046;2022-10-13T12:39:06;11.00;;;5.70;;
31716;SDS011;18301;51.076;17.046;2022-10-13T12:44:19;10.63;;;5.95;;
31716;SDS011;18301;51.076;17.046;2022-10-13T12:49:23;13.50;;;6.67;;
31716;SDS011;18301;51.076;17.046;2022-10-13T12:54:28;15.90;;;6.60;;
31716;SDS011;18301;51.076;17.046;2022-10-13T12:59:37;10.90;;;6.20;;
31716;SDS011;18301;51.076;17.046;2022-10-13T13:04:42;10.80;;;5.93;;
31716;SDS011;18301;51.076;17.046;2022-10-13T13:09:57;10.35;;;5.72;;
31716;SDS011;18301;51.076;17.046;2022-10-13T13:15:20;10.05;;;5.25;;
31716;SDS011;18301;51.076;17.046;2022-10-13T13:20:31;14.00;;;6.47;;
31716;SDS011;18301;51.076;17.046;2022-10-13T13:25:34;8.68;;;5.93;;
31716;SDS011;18301;51.076;17.046;2022-10-13T13:30:36;10.02;;;6.25;;
31716;SDS011;18301;51.076;17.046;2022-10-13T13:35:37;13.98;;;6.45;;
31716;SDS011;18301;51.076;17.046;2022-10-13T13:40:39;14.77;;;6.65;;
31716;SDS011;18301;51.076;17.046;2022-10-13T13:45:40;12.23;;;6.57;;
31716;SDS011;18301;51.076;17.046;2022-10-13T13:50:42;9.55;;;5.43;;
31716;SDS011;18301;51.076;17.046;2022-10-13T13:55:43;10.65;;;5.95;;
31716;SDS011;18301;51.076;17.046;2022-10-13T14:00:47;12.38;;;7.05;;
31716;SDS011;18301;51.076;17.046;2022-10-13T14:05:49;16.35;;;7.00;;
31716;SDS011;18301;51.076;17.046;2022-10-13T14:10:50;14.02;;;7.28;;
31716;SDS011;18301;51.076;17.046;2022-10-13T14:15:55;11.07;;;6.32;;
31716;SDS011;18301;51.076;17.046;2022-10-13T14:20:58;13.75;;;6.30;;
31716;SDS011;18301;51.076;17.046;2022-10-13T14:26:03;11.38;;;6.28;;
31716;SDS011;18301;51.076;17.046;2022-10-13T14:31:06;12.80;;;6.22;;
31716;SDS011;18301;51.076;17.046;2022-10-13T14:36:07;16.88;;;6.47;;
31716;SDS011;18301;51.076;17.046;2022-10-13T14:41:09;12.45;;;6.80;;
31716;SDS011;18301;51.076;17.046;2022-10-13T14:46:11;12.60;;;5.97;;
31716;SDS011;18301;51.076;17.046;2022-10-13T14:51:12;14.30;;;6.72;;
31716;SDS011;18301;51.076;17.046;2022-10-13T14:56:24;10.60;;;7.05;;
31716;SDS011;18301;51.076;17.046;2022-10-13T15:01:27;12.48;;;7.47;;
31716;SDS011;18301;51.076;17.046;2022-10-13T15:06:29;14.30;;;7.97;;
31716;SDS011;18301;51.076;17.046;2022-10-13T15:11:31;13.00;;;7.57;;
31716;SDS011;18301;51.076;17.046;2022-10-13T15:16:34;16.73;;;9.48;;
31716;SDS011;18301;51.076;17.046;2022-10-13T15:21:38;14.43;;;8.85;;
31716;SDS011;18301;51.076;17.046;2022-10-13T15:26:40;16.42;;;7.88;;
31716;SDS011;18301;51.076;17.046;2022-10-13T15:31:41;12.85;;;7.25;;
31716;SDS011;18301;51.076;17.046;2022-10-13T15:36:43;15.88;;;7.38;;
31716;SDS011;18301;51.076;17.046;2022-10-13T15:41:45;15.60;;;7.72;;
31716;SDS011;18301;51.076;17.046;2022-10-13T15:46:46;17.27;;;7.35;;
31716;SDS011;18301;51.076;17.046;2022-10-13T15:52:07;16.10;;;8.07;;
31716;SDS011;18301;51.076;17.046;2022-10-13T15:57:09;15.73;;;7.57;;
31716;SDS011;18301;51.076;17.046;2022-10-13T16:02:10;13.10;;;7.63;;
31716;SDS011;18301;51.076;17.046;2022-10-13T16:07:12;15.68;;;7.68;;
31716;SDS011;18301;51.076;17.046;2022-10-13T16:12:13;18.83;;;8.40;;
31716;SDS011;18301;51.076;17.046;2022-10-13T16:17:15;16.55;;;9.07;;
31716;SDS011;18301;51.076;17.046;2022-10-13T16:22:16;15.52;;;9.00;;
31716;SDS011;18301;51.076;17.046;2022-10-13T16:27:18;22.08;;;9.07;;
31716;SDS011;18301;51.076;17.046;2022-10-13T16:32:20;17.63;;;9.52;;
31716;SDS011;18301;51.076;17.046;2022-10-13T16:37:22;22.23;;;10.02;;
31716;SDS011;18301;51.076;17.046;2022-10-13T16:42:24;18.45;;;10.73;;
31716;SDS011;18301;51.076;17.046;2022-10-13T16:47:25;25.58;;;11.63;;
31716;SDS011;18301;51.076;17.046;2022-10-13T16:52:27;25.98;;;12.25;;
31716;SDS011;18301;51.076;17.046;2022-10-13T16:57:29;26.30;;;13.73;;
31716;SDS011;18301;51.076;17.046;2022-10-13T17:02:31;39.05;;;21.15;;
31716;SDS011;18301;51.076;17.046;2022-10-13T17:07:32;34.53;;;18.95;;
31716;SDS011;18301;51.076;17.046;2022-10-13T17:12:34;44.92;;;21.38;;
31716;SDS011;18301;51.076;17.046;2022-10-13T17:17:35;108.28;;;52.10;;
31716;SDS011;18301;51.076;17.046;2022-10-13T17:22:37;126.10;;;60.42;;
31716;SDS011;18301;51.076;17.046;2022-10-13T17:27:39;77.30;;;38.70;;
31716;SDS011;18301;51.076;17.046;2022-10-13T17:32:41;57.72;;;31.30;;
31716;SDS011;18301;51.076;17.046;2022-10-13T17:37:42;62.00;;;28.73;;
31716;SDS011;18301;51.076;17.046;2022-10-13T17:42:44;60.28;;;29.95;;
31716;SDS011;18301;51.076;17.046;2022-10-13T17:47:49;67.38;;;34.25;;
31716;SDS011;18301;51.076;17.046;2022-10-13T17:52:51;56.45;;;29.75;;
31716;SDS011;18301;51.076;17.046;2022-10-13T17:57:53;58.03;;;28.00;;
31716;SDS011;18301;51.076;17.046;2022-10-13T18:02:55;66.05;;;30.52;;
31716;SDS011;18301;51.076;17.046;2022-10-13T18:07:56;57.90;;;30.08;;
31716;SDS011;18301;51.076;17.046;2022-10-13T18:12:58;56.83;;;27.27;;
31716;SDS011;18301;51.076;17.046;2022-10-13T18:18:00;52.72;;;25.95;;
31716;SDS011;18301;51.076;17.046;2022-10-13T18:23:01;58.55;;;28.27;;
31716;SDS011;18301;51.076;17.046;2022-10-13T18:28:02;76.30;;;38.65;;
31716;SDS011;18301;51.076;17.046;2022-10-13T18:33:04;61.67;;;29.33;;
31716;SDS011;18301;51.076;17.046;2022-10-13T18:38:06;43.00;;;23.80;;
31716;SDS011;18301;51.076;17.046;2022-10-13T18:43:07;46.78;;;24.33;;
31716;SDS011;18301;51.076;17.046;2022-10-13T18:48:08;44.88;;;23.30;;
31716;SDS011;18301;51.076;17.046;2022-10-13T18:53:10;44.50;;;22.67;;
31716;SDS011;18301;51.076;17.046;2022-10-13T18:58:11;46.88;;;24.35;;
31716;SDS011;18301;51.076;17.046;2022-10-13T19:03:13;54.40;;;26.92;;
31716;SDS011;18301;51.076;17.046;2022-10-13T19:08:14;53.50;;;26.80;;
31716;SDS011;18301;51.076;17.046;2022-10-13T19:13:16;51.25;;;26.80;;
31716;SDS011;18301;51.076;17.046;2022-10-13T19:18:17;50.75;;;26.83;;
31716;SDS011;18301;51.076;17.046;2022-10-13T19:23:19;48.95;;;24.83;;
31716;SDS011;18301;51.076;17.046;2022-10-13T19:28:20;42.45;;;24.33;;
31716;SDS011;18301;51.076;17.046;2022-10-13T19:33:22;47.08;;;24.50;;
31716;SDS011;18301;51.076;17.046;2022-10-13T19:38:23;44.10;;;23.55;;
31716;SDS011;18301;51.076;17.046;2022-10-13T19:43:25;48.75;;;24.33;;
31716;SDS011;18301;51.076;17.046;2022-10-13T19:48:26;53.47;;;25.00;;
31716;SDS011;18301;51.076;17.046;2022-10-13T19:53:28;50.80;;;24.73;;
31716;SDS011;18301;51.076;17.046;2022-10-13T19:58:29;51.95;;;26.90;;
31716;SDS011;18301;51.076;17.046;2022-10-13T20:03:31;47.75;;;25.45;;
31716;SDS011;18301;51.076;17.046;2022-10-13T20:08:32;47.53;;;24.83;;
31716;SDS011;18301;51.076;17.046;2022-10-13T20:13:34;48.53;;;24.92;;
31716;SDS011;18301;51.076;17.046;2022-10-13T20:18:36;48.60;;;23.35;;
31716;SDS011;18301;51.076;17.046;2022-10-13T20:23:38;40.30;;;23.48;;
31716;SDS011;18301;51.076;17.046;2022-10-13T20:28:42;41.45;;;23.92;;
31716;SDS011;18301;51.076;17.046;2022-10-13T20:33:45;40.10;;;22.52;;
31716;SDS011;18301;51.076;17.046;2022-10-13T20:38:47;46.80;;;23.50;;
31716;SDS011;18301;51.076;17.046;2022-10-13T20:43:49;44.08;;;23.40;;
31716;SDS011;18301;51.076;17.046;2022-10-13T20:48:51;44.97;;;23.52;;
31716;SDS011;18301;51.076;17.046;2022-10-13T20:54:13;44.33;;;23.63;;
31716;SDS011;18301;51.076;17.046;2022-10-13T20:59:15;41.67;;;22.77;;
31716;SDS011;18301;51.076;17.046;2022-10-13T21:04:16;44.75;;;23.15;;
31716;SDS011;18301;51.076;17.046;2022-10-13T21:09:18;41.20;;;23.50;;
31716;SDS011;18301;51.076;17.046;2022-10-13T21:14:19;38.75;;;22.17;;
31716;SDS011;18301;51.076;17.046;2022-10-13T21:19:21;51.45;;;28.27;;
31716;SDS011;18301;51.076;17.046;2022-10-13T21:24:23;48.97;;;27.23;;
31716;SDS011;18301;51.076;17.046;2022-10-13T21:29:24;45.75;;;25.33;;
31716;SDS011;18301;51.076;17.046;2022-10-13T21:34:26;44.50;;;24.20;;
31716;SDS011;18301;51.076;17.046;2022-10-13T21:39:27;43.97;;;24.40;;
31716;SDS011;18301;51.076;17.046;2022-10-13T21:44:28;42.72;;;23.55;;
31716;SDS011;18301;51.076;17.046;2022-10-13T21:49:31;46.35;;;25.42;;
31716;SDS011;18301;51.076;17.046;2022-10-13T21:54:32;47.42;;;25.42;;
31716;SDS011;18301;51.076;17.046;2022-10-13T21:59:34;53.50;;;26.02;;
31716;SDS011;18301;51.076;17.046;2022-10-13T22:04:35;48.50;;;25.95;;
31716;SDS011;18301;51.076;17.046;2022-10-13T22:09:37;48.83;;;26.58;;
31716;SDS011;18301;51.076;17.046;2022-10-13T22:14:38;45.67;;;26.08;;
31716;SDS011;18301;51.076;17.046;2022-10-13T22:19:40;42.03;;;24.50;;
31716;SDS011;18301;51.076;17.046;2022-10-13T22:24:41;46.10;;;25.55;;
31716;SDS011;18301;51.076;17.046;2022-10-13T22:29:43;47.00;;;26.42;;
31716;SDS011;18301;51.076;17.046;2022-10-13T22:34:44;44.95;;;24.75;;
31716;SDS011;18301;51.076;17.046;2022-10-13T22:39:46;42.65;;;24.05;;
31716;SDS011;18301;51.076;17.046;2022-10-13T22:44:47;45.45;;;25.25;;
31716;SDS011;18301;51.076;17.046;2022-10-13T22:49:48;46.08;;;24.65;;
31716;SDS011;18301;51.076;17.046;2022-10-13T22:54:50;48.85;;;25.85;;
31716;SDS011;18301;51.076;17.046;2022-10-13T22:59:51;47.47;;;25.67;;
31716;SDS011;18301;51.076;17.046;2022-10-13T23:04:53;47.30;;;25.55;;
31716;SDS011;18301;51.076;17.046;2022-10-13T23:09:54;46.78;;;25.63;;
31716;SDS011;18301;51.076;17.046;2022-10-13T23:14:56;52.35;;;26.30;;
31716;SDS011;18301;51.076;17.046;2022-10-13T23:19:57;48.97;;;25.80;;
31716;SDS011;18301;51.076;17.046;2022-10-13T23:24:58;52.78;;;26.42;;
31716;SDS011;18301;51.076;17.046;2022-10-13T23:30:00;50.08;;;26.23;;
31716;SDS011;18301;51.076;17.046;2022-10-13T23:35:01;49.28;;;26.15;;
31716;SDS011;18301;51.076;17.046;2022-10-13T23:40:03;49.17;;;27.05;;
31716;SDS011;18301;51.076;17.046;2022-10-13T23:45:05;51.05;;;28.15;;
31716;SDS011;18301;51.076;17.046;2022-10-13T23:50:07;49.20;;;27.45;;
31716;SDS011;18301;51.076;17.046;2022-10-13T23:55:08;47.83;;;27.38;;
